sensor_id;sensor_type;location;lat;lon;timestamp;pressure;altitude;pressure_sealevel;temperature;humidity
6423;BME280;3244;42.708;23.288;2023-05-19T00:01:07;95254.81;;;13.60;83.89
6423;BME280;3244;42.708;23.288;2023-05-19T00:03:34;95258.56;;;13.72;82.52
6423;BME280;3244;42.708;23.288;2023-05-19T00:06:06;95248.47;;;13.69;82.89
6423;BME280;3244;42.708;23.288;2023-05-19T00:08:33;95260.28;;;13.72;82.78
6423;BME280;3244;42.708;23.288;2023-05-19T00:11:05;95254.38;;;13.90;82.05
6423;BME280;3244;42.708;23.288;2023-05-19T00:13:32;95254.38;;;13.90;81.98
6423;BME280;3244;42.708;23.288;2023-05-19T00:15:59;95249.38;;;13.87;81.96
6423;BME280;3244;42.708;23.288;2023-05-19T00:18:26;95243.25;;;13.91;82.16
6423;BME280;3244;42.708;23.288;2023-05-19T00:20:54;95228.88;;;13.88;81.75
6423;BME280;3244;42.708;23.288;2023-05-19T00:23:20;95234.31;;;14.01;81.29
6423;BME280;3244;42.708;23.288;2023-05-19T00:25:47;95235.66;;;13.89;82.34
6423;BME280;3244;42.708;23.288;2023-05-19T00:28:15;95234.06;;;13.87;82.35
6423;BME280;3244;42.708;23.288;2023-05-19T00:30:42;95241.13;;;13.82;82.29
6423;BME280;3244;42.708;23.288;2023-05-19T00:33:08;95240.22;;;13.83;82.67
6423;BME280;3244;42.708;23.288;2023-05-19T00:35:35;95242.28;;;13.75;83.17
6423;BME280;3244;42.708;23.288;2023-05-19T00:38:01;95242.97;;;13.78;82.97
6423;BME280;3244;42.708;23.288;2023-05-19T00:40:29;95238.00;;;13.75;83.15
6423;BME280;3244;42.708;23.288;2023-05-19T00:42:57;95235.75;;;13.68;83.42
6423;BME280;3244;42.708;23.288;2023-05-19T00:45:25;95223.88;;;13.67;83.71
6423;BME280;3244;42.708;23.288;2023-05-19T00:47:52;95229.41;;;13.57;84.04
6423;BME280;3244;42.708;23.288;2023-05-19T00:50:19;95223.72;;;13.51;83.38
6423;BME280;3244;42.708;23.288;2023-05-19T00:52:47;95230.97;;;13.40;84.35
6423;BME280;3244;42.708;23.288;2023-05-19T00:55:13;95230.50;;;13.32;85.28
6423;BME280;3244;42.708;23.288;2023-05-19T00:57:41;95225.44;;;13.30;84.76
6423;BME280;3244;42.708;23.288;2023-05-19T01:00:09;95229.84;;;13.26;85.48
6423;BME280;3244;42.708;23.288;2023-05-19T01:02:38;95228.31;;;13.22;85.51
6423;BME280;3244;42.708;23.288;2023-05-19T01:05:05;95226.78;;;13.18;85.29
6423;BME280;3244;42.708;23.288;2023-05-19T01:07:32;95222.38;;;13.22;85.13
6423;BME280;3244;42.708;23.288;2023-05-19T01:09:59;95231.75;;;13.21;85.26
6423;BME280;3244;42.708;23.288;2023-05-19T01:12:26;95240.19;;;13.23;85.54
6423;BME280;3244;42.708;23.288;2023-05-19T01:14:52;95228.97;;;13.06;86.43
6423;BME280;3244;42.708;23.288;2023-05-19T01:17:25;95230.34;;;12.92;86.45
6423;BME280;3244;42.708;23.288;2023-05-19T01:19:59;95232.25;;;12.87;87.34
6423;BME280;3244;42.708;23.288;2023-05-19T01:22:56;95232.38;;;12.84;87.38
6423;BME280;3244;42.708;23.288;2023-05-19T01:29:02;95219.09;;;12.76;88.26
6423;BME280;3244;42.708;23.288;2023-05-19T01:31:35;95227.63;;;12.75;88.16
6423;BME280;3244;42.708;23.288;2023-05-19T01:34:03;95229.66;;;12.67;88.44
6423;BME280;3244;42.708;23.288;2023-05-19T01:36:30;95227.00;;;12.70;88.77
6423;BME280;3244;42.708;23.288;2023-05-19T01:38:58;95227.63;;;12.75;88.08
6423;BME280;3244;42.708;23.288;2023-05-19T01:41:26;95238.19;;;12.66;88.47
6423;BME280;3244;42.708;23.288;2023-05-19T01:43:54;95247.00;;;12.59;89.06
6423;BME280;3244;42.708;23.288;2023-05-19T01:46:22;95232.81;;;12.52;89.34
6423;BME280;3244;42.708;23.288;2023-05-19T01:48:51;95239.97;;;12.64;88.31
6423;BME280;3244;42.708;23.288;2023-05-19T01:51:18;95241.28;;;12.52;88.32
6423;BME280;3244;42.708;23.288;2023-05-19T01:53:44;95233.91;;;12.45;88.75
6423;BME280;3244;42.708;23.288;2023-05-19T01:56:14;95245.66;;;12.49;88.76
6423;BME280;3244;42.708;23.288;2023-05-19T01:58:44;95243.06;;;12.50;88.56
6423;BME280;3244;42.708;23.288;2023-05-19T02:01:20;95239.50;;;12.54;88.70
6423;BME280;3244;42.708;23.288;2023-05-19T02:04:02;95240.56;;;12.49;88.78
6423;BME280;3244;42.708;23.288;2023-05-19T02:06:41;95230.75;;;12.62;88.16
6423;BME280;3244;42.708;23.288;2023-05-19T02:09:13;95242.34;;;12.47;88.46
6423;BME280;3244;42.708;23.288;2023-05-19T02:11:45;95240.22;;;12.36;89.11
6423;BME280;3244;42.708;23.288;2023-05-19T02:14:16;95246.13;;;12.37;89.38
6423;BME280;3244;42.708;23.288;2023-05-19T02:16:47;95246.00;;;12.40;89.43
6423;BME280;3244;42.708;23.288;2023-05-19T02:19:23;95232.47;;;12.38;89.42
6423;BME280;3244;42.708;23.288;2023-05-19T02:21:50;95242.56;;;12.41;89.61
6423;BME280;3244;42.708;23.288;2023-05-19T02:24:17;95249.09;;;12.48;88.81
6423;BME280;3244;42.708;23.288;2023-05-19T02:26:44;95242.13;;;12.53;88.70
6423;BME280;3244;42.708;23.288;2023-05-19T02:29:11;95249.88;;;12.50;89.08
6423;BME280;3244;42.708;23.288;2023-05-19T02:31:37;95240.44;;;12.52;89.03
6423;BME280;3244;42.708;23.288;2023-05-19T02:34:04;95250.75;;;12.49;89.20
6423;BME280;3244;42.708;23.288;2023-05-19T02:36:33;95247.72;;;12.39;89.98
6423;BME280;3244;42.708;23.288;2023-05-19T02:39:00;95247.91;;;12.35;89.66
6423;BME280;3244;42.708;23.288;2023-05-19T02:41:27;95251.97;;;12.39;89.85
6423;BME280;3244;42.708;23.288;2023-05-19T02:43:54;95244.59;;;12.33;89.91
6423;BME280;3244;42.708;23.288;2023-05-19T02:46:21;95252.50;;;12.25;89.95
6423;BME280;3244;42.708;23.288;2023-05-19T02:48:47;95254.56;;;12.15;90.60
6423;BME280;3244;42.708;23.288;2023-05-19T02:51:14;95265.41;;;12.20;90.55
6423;BME280;3244;42.708;23.288;2023-05-19T02:53:42;95256.22;;;12.16;90.11
6423;BME280;3244;42.708;23.288;2023-05-19T02:56:08;95249.06;;;12.26;89.88
6423;BME280;3244;42.708;23.288;2023-05-19T02:58:35;95257.78;;;12.20;89.75
6423;BME280;3244;42.708;23.288;2023-05-19T03:01:02;95255.16;;;12.22;89.84
6423;BME280;3244;42.708;23.288;2023-05-19T03:03:29;95254.91;;;12.30;89.41
6423;BME280;3244;42.708;23.288;2023-05-19T03:05:56;95264.47;;;12.23;90.05
6423;BME280;3244;42.708;23.288;2023-05-19T03:08:22;95266.97;;;12.24;89.47
6423;BME280;3244;42.708;23.288;2023-05-19T03:10:50;95272.28;;;12.18;89.77
6423;BME280;3244;42.708;23.288;2023-05-19T03:13:17;95261.97;;;12.21;89.40
6423;BME280;3244;42.708;23.288;2023-05-19T03:15:44;95260.31;;;12.20;89.22
6423;BME280;3244;42.708;23.288;2023-05-19T03:18:11;95268.00;;;12.19;89.74
6423;BME280;3244;42.708;23.288;2023-05-19T03:20:38;95271.22;;;12.24;89.95
6423;BME280;3244;42.708;23.288;2023-05-19T03:23:06;95271.22;;;12.24;89.86
6423;BME280;3244;42.708;23.288;2023-05-19T03:25:33;95267.22;;;12.40;89.65
6423;BME280;3244;42.708;23.288;2023-05-19T03:28:01;95267.59;;;12.53;89.70
6423;BME280;3244;42.708;23.288;2023-05-19T03:30:28;95267.72;;;12.93;87.88
6423;BME280;3244;42.708;23.288;2023-05-19T03:32:54;95261.50;;;13.43;85.14
6423;BME280;3244;42.708;23.288;2023-05-19T03:35:21;95259.72;;;14.04;81.87
6423;BME280;3244;42.708;23.288;2023-05-19T03:37:48;95261.28;;;14.46;79.62
6423;BME280;3244;42.708;23.288;2023-05-19T03:40:14;95260.88;;;14.55;78.87
6423;BME280;3244;42.708;23.288;2023-05-19T03:42:43;95266.81;;;14.55;78.37
6423;BME280;3244;42.708;23.288;2023-05-19T03:45:11;95272.13;;;14.51;78.28
6423;BME280;3244;42.708;23.288;2023-05-19T03:47:37;95273.44;;;14.41;78.33
6423;BME280;3244;42.708;23.288;2023-05-19T03:50:05;95269.25;;;14.38;78.52
6423;BME280;3244;42.708;23.288;2023-05-19T03:52:32;95271.66;;;14.43;77.97
6423;BME280;3244;42.708;23.288;2023-05-19T03:54:58;95277.59;;;14.43;78.53
6423;BME280;3244;42.708;23.288;2023-05-19T03:57:25;95276.22;;;14.55;78.74
6423;BME280;3244;42.708;23.288;2023-05-19T03:59:53;95274.88;;;14.65;77.58
6423;BME280;3244;42.708;23.288;2023-05-19T04:02:21;95278.84;;;14.89;76.22
6423;BME280;3244;42.708;23.288;2023-05-19T04:04:48;95286.31;;;14.94;75.43
6423;BME280;3244;42.708;23.288;2023-05-19T04:07:15;95284.75;;;14.91;75.02
6423;BME280;3244;42.708;23.288;2023-05-19T04:09:42;95287.50;;;15.06;75.74
6423;BME280;3244;42.708;23.288;2023-05-19T04:12:09;95292.75;;;15.56;74.57
6423;BME280;3244;42.708;23.288;2023-05-19T04:14:36;95290.84;;;16.43;71.67
6423;BME280;3244;42.708;23.288;2023-05-19T04:17:02;95283.19;;;17.35;68.83
6423;BME280;3244;42.708;23.288;2023-05-19T04:19:31;95275.13;;;18.30;65.28
6423;BME280;3244;42.708;23.288;2023-05-19T04:21:57;95277.50;;;19.02;62.55
6423;BME280;3244;42.708;23.288;2023-05-19T04:24:24;95280.63;;;19.74;60.08
6423;BME280;3244;42.708;23.288;2023-05-19T04:26:51;95283.94;;;20.27;57.74
6423;BME280;3244;42.708;23.288;2023-05-19T04:29:17;95284.19;;;20.73;56.85
6423;BME280;3244;42.708;23.288;2023-05-19T04:31:44;95280.06;;;21.31;54.68
6423;BME280;3244;42.708;23.288;2023-05-19T04:34:11;95278.72;;;21.73;53.35
6423;BME280;3244;42.708;23.288;2023-05-19T04:36:39;95277.53;;;22.23;51.80
6423;BME280;3244;42.708;23.288;2023-05-19T04:39:06;95284.94;;;22.72;51.26
6423;BME280;3244;42.708;23.288;2023-05-19T04:41:36;95274.66;;;23.04;49.57
6423;BME280;3244;42.708;23.288;2023-05-19T04:44:04;95286.88;;;23.25;49.15
6423;BME280;3244;42.708;23.288;2023-05-19T04:46:31;95278.28;;;23.56;48.59
6423;BME280;3244;42.708;23.288;2023-05-19T04:48:58;95280.72;;;23.69;47.47
6423;BME280;3244;42.708;23.288;2023-05-19T04:51:25;95285.06;;;23.36;48.94
6423;BME280;3244;42.708;23.288;2023-05-19T04:53:53;95283.25;;;23.16;49.18
6423;BME280;3244;42.708;23.288;2023-05-19T04:56:20;95279.63;;;22.96;48.96
6423;BME280;3244;42.708;23.288;2023-05-19T04:58:47;95286.47;;;22.64;50.30
6423;BME280;3244;42.708;23.288;2023-05-19T05:01:14;95281.31;;;22.42;50.94
6423;BME280;3244;42.708;23.288;2023-05-19T05:03:41;95292.09;;;22.13;51.49
6423;BME280;3244;42.708;23.288;2023-05-19T05:06:07;95294.19;;;21.97;52.26
6423;BME280;3244;42.708;23.288;2023-05-19T05:08:34;95293.03;;;22.12;52.35
6423;BME280;3244;42.708;23.288;2023-05-19T05:11:06;95288.81;;;22.11;52.04
6423;BME280;3244;42.708;23.288;2023-05-19T05:13:33;95295.81;;;21.98;52.11
6423;BME280;3244;42.708;23.288;2023-05-19T05:16:00;95297.00;;;21.94;52.44
6423;BME280;3244;42.708;23.288;2023-05-19T05:18:29;95294.03;;;22.45;51.38
6423;BME280;3244;42.708;23.288;2023-05-19T05:20:56;95297.97;;;23.04;49.90
6423;BME280;3244;42.708;23.288;2023-05-19T05:23:23;95291.41;;;23.00;49.52
6423;BME280;3244;42.708;23.288;2023-05-19T05:25:50;95284.59;;;22.99;50.08
6423;BME280;3244;42.708;23.288;2023-05-19T05:28:19;95282.94;;;22.87;50.28
6423;BME280;3244;42.708;23.288;2023-05-19T05:30:45;95290.47;;;22.68;50.78
6423;BME280;3244;42.708;23.288;2023-05-19T05:33:13;95290.25;;;22.26;51.69
6423;BME280;3244;42.708;23.288;2023-05-19T05:35:40;95298.94;;;22.14;52.22
6423;BME280;3244;42.708;23.288;2023-05-19T05:38:06;95291.41;;;22.33;52.28
6423;BME280;3244;42.708;23.288;2023-05-19T05:40:35;95291.91;;;22.94;50.92
6423;BME280;3244;42.708;23.288;2023-05-19T05:43:02;95289.38;;;23.79;48.81
6423;BME280;3244;42.708;23.288;2023-05-19T05:45:30;95285.56;;;24.04;47.54
6423;BME280;3244;42.708;23.288;2023-05-19T05:47:57;95289.50;;;23.78;47.98
6423;BME280;3244;42.708;23.288;2023-05-19T05:50:24;95294.56;;;23.47;48.62
6423;BME280;3244;42.708;23.288;2023-05-19T05:52:52;95299.28;;;23.10;49.70
6423;BME280;3244;42.708;23.288;2023-05-19T05:55:21;95303.09;;;23.27;49.31
6423;BME280;3244;42.708;23.288;2023-05-19T05:57:48;95296.53;;;24.07;48.20
6423;BME280;3244;42.708;23.288;2023-05-19T06:00:17;95302.31;;;25.71;44.96
6423;BME280;3244;42.708;23.288;2023-05-19T06:02:47;95300.75;;;28.77;38.70
6423;BME280;3244;42.708;23.288;2023-05-19T06:05:14;95293.50;;;32.30;32.51
6423;BME280;3244;42.708;23.288;2023-05-19T06:07:41;95294.78;;;35.13;28.02
6423;BME280;3244;42.708;23.288;2023-05-19T06:10:08;95299.53;;;37.73;24.86
6423;BME280;3244;42.708;23.288;2023-05-19T06:12:35;95296.06;;;39.34;22.02
6423;BME280;3244;42.708;23.288;2023-05-19T06:15:05;95284.81;;;40.80;20.50
6423;BME280;3244;42.708;23.288;2023-05-19T06:17:32;95296.19;;;41.67;19.48
6423;BME280;3244;42.708;23.288;2023-05-19T06:20:01;95293.13;;;42.04;19.24
6423;BME280;3244;42.708;23.288;2023-05-19T06:22:29;95284.03;;;42.72;18.82
6423;BME280;3244;42.708;23.288;2023-05-19T06:24:55;95284.50;;;43.24;17.83
6423;BME280;3244;42.708;23.288;2023-05-19T06:27:22;95286.03;;;43.42;17.83
6423;BME280;3244;42.708;23.288;2023-05-19T06:29:49;95285.94;;;43.86;17.49
6423;BME280;3244;42.708;23.288;2023-05-19T06:32:16;95278.09;;;44.75;16.47
6423;BME280;3244;42.708;23.288;2023-05-19T06:34:42;95282.22;;;44.88;17.01
6423;BME280;3244;42.708;23.288;2023-05-19T06:37:10;95284.19;;;45.13;16.13
6423;BME280;3244;42.708;23.288;2023-05-19T06:39:39;95281.72;;;45.63;15.91
6423;BME280;3244;42.708;23.288;2023-05-19T06:42:06;95271.59;;;46.01;15.29
6423;BME280;3244;42.708;23.288;2023-05-19T06:44:32;95269.72;;;46.22;15.66
6423;BME280;3244;42.708;23.288;2023-05-19T06:46:59;95266.16;;;45.81;15.50
6423;BME280;3244;42.708;23.288;2023-05-19T06:49:25;95276.16;;;46.16;15.28
6423;BME280;3244;42.708;23.288;2023-05-19T06:51:53;95281.78;;;46.29;15.12
6423;BME280;3244;42.708;23.288;2023-05-19T06:54:21;95279.13;;;46.45;15.18
6423;BME280;3244;42.708;23.288;2023-05-19T06:56:48;95287.16;;;46.29;14.78
6423;BME280;3244;42.708;23.288;2023-05-19T06:59:15;95285.78;;;45.91;14.87
6423;BME280;3244;42.708;23.288;2023-05-19T07:01:41;95288.25;;;46.33;15.24
6423;BME280;3244;42.708;23.288;2023-05-19T07:04:08;95293.63;;;46.13;14.94
6423;BME280;3244;42.708;23.288;2023-05-19T07:06:35;95288.53;;;45.96;15.32
6423;BME280;3244;42.708;23.288;2023-05-19T07:09:01;95290.16;;;46.38;14.82
6423;BME280;3244;42.708;23.288;2023-05-19T07:11:31;95294.16;;;46.71;14.78
6423;BME280;3244;42.708;23.288;2023-05-19T07:13:57;95289.28;;;46.63;14.54
6423;BME280;3244;42.708;23.288;2023-05-19T07:16:24;95293.09;;;46.21;15.20
6423;BME280;3244;42.708;23.288;2023-05-19T07:18:51;95293.91;;;46.27;14.86
6423;BME280;3244;42.708;23.288;2023-05-19T07:21:17;95295.25;;;46.39;15.06
6423;BME280;3244;42.708;23.288;2023-05-19T07:23:44;95296.88;;;46.46;14.89
6423;BME280;3244;42.708;23.288;2023-05-19T07:26:11;95305.16;;;46.64;14.47
6423;BME280;3244;42.708;23.288;2023-05-19T07:28:39;95302.25;;;46.40;14.46
6423;BME280;3244;42.708;23.288;2023-05-19T07:31:06;95294.59;;;45.56;14.91
6423;BME280;3244;42.708;23.288;2023-05-19T07:33:33;95291.75;;;45.98;14.40
6423;BME280;3244;42.708;23.288;2023-05-19T07:36:00;95301.06;;;45.81;14.48
6423;BME280;3244;42.708;23.288;2023-05-19T07:38:26;95290.34;;;45.81;14.76
6423;BME280;3244;42.708;23.288;2023-05-19T07:40:53;95281.22;;;46.63;14.36
6423;BME280;3244;42.708;23.288;2023-05-19T07:43:20;95292.59;;;47.34;13.97
6423;BME280;3244;42.708;23.288;2023-05-19T07:45:48;95293.38;;;47.94;14.15
6423;BME280;3244;42.708;23.288;2023-05-19T07:48:15;95291.59;;;47.25;13.82
6423;BME280;3244;42.708;23.288;2023-05-19T07:50:43;95289.66;;;47.41;14.17
6423;BME280;3244;42.708;23.288;2023-05-19T07:53:09;95282.63;;;47.45;13.74
6423;BME280;3244;42.708;23.288;2023-05-19T07:55:36;95290.13;;;46.73;14.80
6423;BME280;3244;42.708;23.288;2023-05-19T07:58:02;95289.94;;;47.29;14.08
6423;BME280;3244;42.708;23.288;2023-05-19T08:00:29;95281.38;;;47.17;13.64
6423;BME280;3244;42.708;23.288;2023-05-19T08:02:57;95281.47;;;46.82;14.51
6423;BME280;3244;42.708;23.288;2023-05-19T08:05:24;95287.69;;;46.57;14.34
6423;BME280;3244;42.708;23.288;2023-05-19T08:07:51;95284.50;;;46.24;14.48
6423;BME280;3244;42.708;23.288;2023-05-19T08:10:17;95274.25;;;46.77;14.44
6423;BME280;3244;42.708;23.288;2023-05-19T08:12:44;95269.78;;;47.76;13.81
6423;BME280;3244;42.708;23.288;2023-05-19T08:15:11;95281.53;;;45.95;14.78
6423;BME280;3244;42.708;23.288;2023-05-19T08:17:37;95284.69;;;44.20;15.87
6423;BME280;3244;42.708;23.288;2023-05-19T08:20:06;95283.41;;;43.47;16.82
6423;BME280;3244;42.708;23.288;2023-05-19T08:22:34;95292.25;;;44.33;15.86
6423;BME280;3244;42.708;23.288;2023-05-19T08:25:01;95269.31;;;45.42;15.11
6423;BME280;3244;42.708;23.288;2023-05-19T08:27:30;95286.63;;;46.58;14.98
6423;BME280;3244;42.708;23.288;2023-05-19T08:29:57;95276.38;;;46.60;14.69
6423;BME280;3244;42.708;23.288;2023-05-19T08:32:24;95282.06;;;45.97;14.14
6423;BME280;3244;42.708;23.288;2023-05-19T08:34:50;95265.47;;;44.28;15.69
6423;BME280;3244;42.708;23.288;2023-05-19T08:37:18;95272.34;;;43.17;16.31
6423;BME280;3244;42.708;23.288;2023-05-19T08:39:45;95280.53;;;42.88;16.68
6423;BME280;3244;42.708;23.288;2023-05-19T08:42:12;95272.69;;;39.96;18.72
6423;BME280;3244;42.708;23.288;2023-05-19T08:44:38;95277.94;;;39.72;18.73
6423;BME280;3244;42.708;23.288;2023-05-19T08:47:06;95277.28;;;40.42;19.48
6423;BME280;3244;42.708;23.288;2023-05-19T08:49:42;95271.19;;;42.35;17.11
6423;BME280;3244;42.708;23.288;2023-05-19T08:52:16;95277.81;;;42.66;17.12
6423;BME280;3244;42.708;23.288;2023-05-19T08:54:52;95265.63;;;43.36;16.61
6423;BME280;3244;42.708;23.288;2023-05-19T08:57:21;95270.94;;;43.80;16.86
6423;BME280;3244;42.708;23.288;2023-05-19T08:59:49;95271.88;;;44.27;15.91
6423;BME280;3244;42.708;23.288;2023-05-19T09:02:17;95257.50;;;43.04;16.81
6423;BME280;3244;42.708;23.288;2023-05-19T09:04:45;95270.19;;;41.74;17.76
6423;BME280;3244;42.708;23.288;2023-05-19T09:07:12;95261.63;;;40.69;19.62
6423;BME280;3244;42.708;23.288;2023-05-19T09:09:39;95262.59;;;41.55;18.23
6423;BME280;3244;42.708;23.288;2023-05-19T09:12:09;95252.00;;;39.56;18.75
6423;BME280;3244;42.708;23.288;2023-05-19T09:14:36;95252.78;;;38.90;20.03
6423;BME280;3244;42.708;23.288;2023-05-19T09:17:03;95242.47;;;38.82;20.89
6423;BME280;3244;42.708;23.288;2023-05-19T09:19:30;95252.94;;;37.46;21.18
6423;BME280;3244;42.708;23.288;2023-05-19T09:21:57;95257.97;;;33.87;25.45
6423;BME280;3244;42.708;23.288;2023-05-19T09:24:25;95251.47;;;31.16;28.63
6423;BME280;3244;42.708;23.288;2023-05-19T09:26:54;95239.88;;;30.94;29.20
6423;BME280;3244;42.708;23.288;2023-05-19T09:29:23;95247.03;;;31.62;29.21
6423;BME280;3244;42.708;23.288;2023-05-19T09:31:51;95249.25;;;32.49;28.59
6423;BME280;3244;42.708;23.288;2023-05-19T09:34:19;95224.91;;;29.84;31.57
6423;BME280;3244;42.708;23.288;2023-05-19T09:36:47;95256.72;;;29.06;33.21
6423;BME280;3244;42.708;23.288;2023-05-19T09:39:15;95234.84;;;29.16;33.69
6423;BME280;3244;42.708;23.288;2023-05-19T09:41:42;95245.00;;;29.27;34.22
6423;BME280;3244;42.708;23.288;2023-05-19T09:44:12;95244.34;;;29.25;34.37
6423;BME280;3244;42.708;23.288;2023-05-19T09:46:47;95231.13;;;27.72;36.54
6423;BME280;3244;42.708;23.288;2023-05-19T09:49:18;95246.88;;;26.82;38.22
6423;BME280;3244;42.708;23.288;2023-05-19T09:51:48;95246.72;;;26.19;39.55
6423;BME280;3244;42.708;23.288;2023-05-19T09:54:15;95253.00;;;25.70;40.77
6423;BME280;3244;42.708;23.288;2023-05-19T09:56:42;95246.03;;;24.92;42.59
6423;BME280;3244;42.708;23.288;2023-05-19T09:59:09;95251.56;;;24.28;43.36
6423;BME280;3244;42.708;23.288;2023-05-19T10:01:37;95252.50;;;24.06;43.93
6423;BME280;3244;42.708;23.288;2023-05-19T10:04:07;95248.75;;;23.68;44.33
6423;BME280;3244;42.708;23.288;2023-05-19T10:06:34;95247.81;;;23.26;45.26
6423;BME280;3244;42.708;23.288;2023-05-19T10:09:01;95245.38;;;23.25;44.49
6423;BME280;3244;42.708;23.288;2023-05-19T10:11:29;95239.34;;;23.56;45.21
6423;BME280;3244;42.708;23.288;2023-05-19T10:13:56;95239.56;;;23.85;44.99
6423;BME280;3244;42.708;23.288;2023-05-19T10:16:25;95241.16;;;23.97;44.51
6423;BME280;3244;42.708;23.288;2023-05-19T10:18:54;95218.84;;;23.95;44.53
6423;BME280;3244;42.708;23.288;2023-05-19T10:21:23;95242.28;;;23.84;44.05
6423;BME280;3244;42.708;23.288;2023-05-19T10:23:50;95242.78;;;23.78;45.25
6423;BME280;3244;42.708;23.288;2023-05-19T10:26:17;95237.16;;;23.93;43.80
6423;BME280;3244;42.708;23.288;2023-05-19T10:28:44;95240.59;;;24.03;42.72
6423;BME280;3244;42.708;23.288;2023-05-19T10:31:15;95236.16;;;24.15;41.70
6423;BME280;3244;42.708;23.288;2023-05-19T10:33:56;95234.31;;;23.76;42.33
6423;BME280;3244;42.708;23.288;2023-05-19T10:36:41;95225.81;;;23.53;44.61
6423;BME280;3244;42.708;23.288;2023-05-19T10:39:16;95229.63;;;23.69;44.14
6423;BME280;3244;42.708;23.288;2023-05-19T10:41:55;95218.47;;;23.79;44.21
6423;BME280;3244;42.708;23.288;2023-05-19T10:44:33;95231.31;;;24.01;43.31
6423;BME280;3244;42.708;23.288;2023-05-19T10:47:06;95231.41;;;24.20;44.31
6423;BME280;3244;42.708;23.288;2023-05-19T10:49:33;95237.66;;;24.38;43.96
6423;BME280;3244;42.708;23.288;2023-05-19T10:52:02;95223.53;;;24.62;43.24
6423;BME280;3244;42.708;23.288;2023-05-19T10:54:39;95214.59;;;25.04;42.22
6423;BME280;3244;42.708;23.288;2023-05-19T10:57:07;95218.41;;;25.00;40.74
6423;BME280;3244;42.708;23.288;2023-05-19T10:59:35;95222.75;;;24.81;41.46
6423;BME280;3244;42.708;23.288;2023-05-19T11:02:04;95212.38;;;24.90;41.84
6423;BME280;3244;42.708;23.288;2023-05-19T11:04:55;95213.00;;;25.23;40.89
6423;BME280;3244;42.708;23.288;2023-05-19T11:07:33;95203.09;;;25.55;40.32
6423;BME280;3244;42.708;23.288;2023-05-19T11:10:04;95189.84;;;25.68;39.88
6423;BME280;3244;42.708;23.288;2023-05-19T11:12:40;95204.34;;;25.70;39.84
6423;BME280;3244;42.708;23.288;2023-05-19T11:15:10;95199.63;;;25.93;39.65
6423;BME280;3244;42.708;23.288;2023-05-19T11:17:38;95211.56;;;25.76;39.95
6423;BME280;3244;42.708;23.288;2023-05-19T11:20:07;95207.22;;;25.48;39.24
6423;BME280;3244;42.708;23.288;2023-05-19T11:22:36;95210.50;;;25.12;38.86
6423;BME280;3244;42.708;23.288;2023-05-19T11:25:03;95211.03;;;25.25;39.34
6423;BME280;3244;42.708;23.288;2023-05-19T11:27:32;95211.31;;;25.12;38.81
6423;BME280;3244;42.708;23.288;2023-05-19T11:30:00;95215.28;;;25.06;39.81
6423;BME280;3244;42.708;23.288;2023-05-19T11:32:30;95206.09;;;25.02;39.81
6423;BME280;3244;42.708;23.288;2023-05-19T11:34:59;95197.00;;;24.68;39.35
6423;BME280;3244;42.708;23.288;2023-05-19T11:37:26;95199.75;;;24.76;39.10
6423;BME280;3244;42.708;23.288;2023-05-19T11:40:00;95199.91;;;24.84;38.62
6423;BME280;3244;42.708;23.288;2023-05-19T11:42:26;95200.94;;;24.22;39.01
6423;BME280;3244;42.708;23.288;2023-05-19T11:44:54;95205.94;;;23.84;41.36
6423;BME280;3244;42.708;23.288;2023-05-19T11:47:21;95209.63;;;23.60;41.26
6423;BME280;3244;42.708;23.288;2023-05-19T11:49:49;95213.38;;;23.67;41.56
6423;BME280;3244;42.708;23.288;2023-05-19T11:52:16;95214.22;;;23.78;40.13
6423;BME280;3244;42.708;23.288;2023-05-19T11:54:47;95213.56;;;23.76;40.78
6423;BME280;3244;42.708;23.288;2023-05-19T11:57:15;95208.28;;;23.87;41.04
6423;BME280;3244;42.708;23.288;2023-05-19T11:59:42;95221.06;;;23.99;40.36
6423;BME280;3244;42.708;23.288;2023-05-19T12:02:15;95225.56;;;23.77;40.47
6423;BME280;3244;42.708;23.288;2023-05-19T12:04:42;95220.19;;;23.16;41.57
6423;BME280;3244;42.708;23.288;2023-05-19T12:07:09;95226.91;;;22.64;44.72
6423;BME280;3244;42.708;23.288;2023-05-19T12:09:36;95237.78;;;22.24;47.13
6423;BME280;3244;42.708;23.288;2023-05-19T12:12:03;95258.94;;;21.37;49.52
6423;BME280;3244;42.708;23.288;2023-05-19T12:14:32;95275.38;;;20.52;52.44
6423;BME280;3244;42.708;23.288;2023-05-19T12:17:09;95280.94;;;19.95;55.02
6423;BME280;3244;42.708;23.288;2023-05-19T12:19:35;95299.75;;;19.57;57.72
6423;BME280;3244;42.708;23.288;2023-05-19T12:22:03;95309.03;;;19.06;60.17
6423;BME280;3244;42.708;23.288;2023-05-19T12:24:31;95299.66;;;18.78;61.53
6423;BME280;3244;42.708;23.288;2023-05-19T12:27:04;95295.69;;;18.73;61.77
6423;BME280;3244;42.708;23.288;2023-05-19T12:29:33;95298.38;;;18.71;61.77
6423;BME280;3244;42.708;23.288;2023-05-19T12:32:00;95288.72;;;18.60;61.96
6423;BME280;3244;42.708;23.288;2023-05-19T12:34:27;95290.09;;;18.66;61.87
6423;BME280;3244;42.708;23.288;2023-05-19T12:36:54;95282.28;;;18.67;61.23
6423;BME280;3244;42.708;23.288;2023-05-19T12:39:21;95285.22;;;18.61;61.25
6423;BME280;3244;42.708;23.288;2023-05-19T12:41:47;95279.06;;;18.64;60.94
6423;BME280;3244;42.708;23.288;2023-05-19T12:44:15;95269.75;;;18.76;59.54
6423;BME280;3244;42.708;23.288;2023-05-19T12:46:43;95261.75;;;18.80;59.68
6423;BME280;3244;42.708;23.288;2023-05-19T12:49:10;95271.19;;;18.94;59.18
6423;BME280;3244;42.708;23.288;2023-05-19T12:51:37;95248.78;;;19.48;57.77
6423;BME280;3244;42.708;23.288;2023-05-19T12:54:04;95243.75;;;19.59;57.52
6423;BME280;3244;42.708;23.288;2023-05-19T12:56:31;95241.72;;;19.90;54.93
6423;BME280;3244;42.708;23.288;2023-05-19T12:58:59;95231.41;;;20.02;53.85
6423;BME280;3244;42.708;23.288;2023-05-19T13:01:28;95234.81;;;20.03;51.77
6423;BME280;3244;42.708;23.288;2023-05-19T13:03:56;95229.44;;;20.06;51.41
6423;BME280;3244;42.708;23.288;2023-05-19T13:06:22;95236.03;;;19.85;51.53
6423;BME280;3244;42.708;23.288;2023-05-19T13:08:49;95229.25;;;19.84;50.78
6423;BME280;3244;42.708;23.288;2023-05-19T13:11:16;95227.19;;;19.89;50.36
6423;BME280;3244;42.708;23.288;2023-05-19T13:13:43;95230.47;;;19.91;50.27
6423;BME280;3244;42.708;23.288;2023-05-19T13:16:09;95231.31;;;19.91;50.75
6423;BME280;3244;42.708;23.288;2023-05-19T13:18:37;95228.00;;;20.02;50.25